Laie, HI (96762)

4:11 AM HST on March 27, 2015 (GMT -1000)
Mililani Mauka | | Change Station
CLOSE
Current Station
Personal Weather Station
Location: Mililani, HI
Elevation: 843 ft
Nearby Weather Stations

Elev 843 ft 21.48 °N, 158.00 °W | Updated 2 minutes ago

Clear
Clear
66.7 °F
Feels Like 66.7 °F
N
2.7
Wind Variable Wind from East

Today
High -- | Low -- °F
--% Chance of Precip.
Yesterday
High -- | Low -- °F
Precip. -- in
6:29 AM 6:45 PM
First Quarter, 53% visible
Pressure 30.11 in
Visibility 10.0 miles
Clouds Clear
Dew Point 60 °F
Humidity 79%
Rainfall 0.00 in
Snow Depth Not available.
UV 0 out of 12
Pollen Not available.
Air Quality Not available.
Flu Activity Not available.
METAR PHHI 271358Z AUTO VRB03KT 10SM CLR 20/16 A3013 RMK AO2 SLP195 T02000158 $

More Conditions Fewer Conditions

Pressure 30.11 in
Visibility 10.0 miles
Clouds Clear
Dew Point 60 °F
Humidity 79%
Rainfall 0.00 in
Snow Depth Not available.
UV 0 out of 12
Pollen Not available.
Air Quality Not available.
Flu Activity Not available.
METAR PHHI 271358Z AUTO VRB03KT 10SM CLR 20/16 A3013 RMK AO2 SLP195 T02000158 $

More Conditions Fewer Conditions

10-Day Weather Forecast

Almanac

Astronomy

Mar. 27, 2015 Rise Set
Actual Time
Civil Twilight
Nautical Twilight
Astronomical Twilight
Moon
Length of Visible Light
Length of Day
Tomorrow will be .
, % of the Moon is Illuminated

Today's Extremes

State Highs State Lows

Community

WunderPhotos

Upload Photos

1,808,735 photos uploaded!

WunderBlogs® & News

Nearby

Air Quality

  Air Quality AQ Index Pollutant
Not available.

Snow Depth

Station Depth Elevation

Earthquake Activity

City Distance Mag. Time & Date
Minimum magnitude displayed is 2.5.

Coastal Water Temperatures

Place Temperature

Stations

Nearby Weather Stations

Station Location Temp. Windchill Dew Point Humidity Wind Precip. Elev Updated Type